NCAR-RAP Real-Time Weather Data

Output produced by METARs form (12 May 2021  12:34 UTC)
found at http://weather.rap.ucar.edu/surface/
 
KTTD 121153Z AUTO 00000KT 10SM CLR 09/06 A3010 RMK AO2 SLP193 T00890061 10172 20089 51002
KTTD 121053Z AUTO 00000KT 10SM CLR 09/06 A3010 RMK AO2 SLP193 T00890061
KTTD 120953Z AUTO 10003KT 10SM CLR 09/07 A3010 RMK AO2 SLP192 T00940067
KTTD 120853Z AUTO 00000KT 10SM CLR 12/07 A3010 RMK AO2 SLP191 T01170072 53001
KTTD 120753Z AUTO 00000KT 10SM CLR 12/07 A3009 RMK AO2 SLP190 T01170072 402440061
KTTD 120653Z AUTO 00000KT 10SM CLR 16/07 A3010 RMK AO2 SLP191 T01610072
KTTD 120553Z AUTO 00000KT 10SM CLR 17/07 A3009 RMK AO2 SLP190 T01720067 10244 20172 52007
KTTD 120453Z AUTO 00000KT 10SM CLR 18/07 A3009 RMK AO2 SLP188 T01830072
KTTD 120353Z 25007KT 10SM CLR 19/04 A3008 RMK AO2 SLP185 T01890039
KTTD 120253Z VRB04KT 10SM CLR 21/03 A3007 RMK AO2 SLP183 T02110028 56005
KTTD 120153Z VRB04KT 10SM CLR 23/05 A3007 RMK AO2 SLP183 T02280050
KTTD 120053Z VRB04KT 10SM CLR 24/05 A3008 RMK AO2 SLP185 T02390050
KTTD 112353Z VRB06KT 10SM CLR 24/04 A3009 RMK AO2 SLP188 T02440044 10244 20156 57014